sensor_id;sensor_type;location;lat;lon;timestamp;P1;durP1;ratioP1;P2;durP2;ratioP2
64595;SDS011;51003;51.628;6.670;2022-07-30T00:01:19;10.73;;;7.27;;
64595;SDS011;51003;51.628;6.670;2022-07-30T00:03:44;14.43;;;7.20;;
64595;SDS011;51003;51.628;6.670;2022-07-30T00:06:09;7.90;;;7.10;;
64595;SDS011;51003;51.628;6.670;2022-07-30T00:08:35;7.27;;;6.50;;
64595;SDS011;51003;51.628;6.670;2022-07-30T00:11:00;12.70;;;7.20;;
64595;SDS011;51003;51.628;6.670;2022-07-30T00:13:26;9.40;;;7.20;;
64595;SDS011;51003;51.628;6.670;2022-07-30T00:15:51;10.40;;;6.93;;
64595;SDS011;51003;51.628;6.670;2022-07-30T00:18:16;10.63;;;7.30;;
64595;SDS011;51003;51.628;6.670;2022-07-30T00:20:42;7.57;;;6.30;;
64595;SDS011;51003;51.628;6.670;2022-07-30T00:23:07;7.77;;;6.90;;
64595;SDS011;51003;51.628;6.670;2022-07-30T00:25:32;11.33;;;8.87;;
64595;SDS011;51003;51.628;6.670;2022-07-30T00:27:58;10.50;;;6.87;;
64595;SDS011;51003;51.628;6.670;2022-07-30T00:30:23;7.83;;;6.67;;
64595;SDS011;51003;51.628;6.670;2022-07-30T00:32:49;13.63;;;7.13;;
64595;SDS011;51003;51.628;6.670;2022-07-30T00:35:14;7.60;;;6.50;;
64595;SDS011;51003;51.628;6.670;2022-07-30T00:37:40;10.03;;;7.20;;
64595;SDS011;51003;51.628;6.670;2022-07-30T00:40:06;10.37;;;7.60;;
64595;SDS011;51003;51.628;6.670;2022-07-30T00:42:40;10.37;;;7.90;;
64595;SDS011;51003;51.628;6.670;2022-07-30T00:45:11;8.97;;;7.33;;
64595;SDS011;51003;51.628;6.670;2022-07-30T00:47:38;8.90;;;6.60;;
64595;SDS011;51003;51.628;6.670;2022-07-30T00:50:04;8.13;;;7.20;;
64595;SDS011;51003;51.628;6.670;2022-07-30T00:52:31;8.27;;;7.00;;
64595;SDS011;51003;51.628;6.670;2022-07-30T00:54:58;7.37;;;6.67;;
64595;SDS011;51003;51.628;6.670;2022-07-30T00:57:24;8.30;;;7.33;;
64595;SDS011;51003;51.628;6.670;2022-07-30T00:59:50;7.23;;;6.53;;
64595;SDS011;51003;51.628;6.670;2022-07-30T01:02:15;8.57;;;6.90;;
64595;SDS011;51003;51.628;6.670;2022-07-30T01:04:40;7.90;;;6.80;;
64595;SDS011;51003;51.628;6.670;2022-07-30T01:07:06;8.93;;;7.20;;
64595;SDS011;51003;51.628;6.670;2022-07-30T01:09:31;8.37;;;7.20;;
64595;SDS011;51003;51.628;6.670;2022-07-30T01:11:57;8.60;;;7.40;;
64595;SDS011;51003;51.628;6.670;2022-07-30T01:14:22;9.10;;;6.93;;
64595;SDS011;51003;51.628;6.670;2022-07-30T01:16:48;22.10;;;7.47;;
64595;SDS011;51003;51.628;6.670;2022-07-30T01:19:16;9.67;;;7.20;;
64595;SDS011;51003;51.628;6.670;2022-07-30T01:25:11;10.40;;;7.00;;
64595;SDS011;51003;51.628;6.670;2022-07-30T01:27:43;8.13;;;6.87;;
64595;SDS011;51003;51.628;6.670;2022-07-30T01:30:12;9.63;;;7.50;;
64595;SDS011;51003;51.628;6.670;2022-07-30T01:32:40;9.23;;;7.43;;
64595;SDS011;51003;51.628;6.670;2022-07-30T01:35:08;8.83;;;7.50;;
64595;SDS011;51003;51.628;6.670;2022-07-30T01:37:34;11.13;;;7.90;;
64595;SDS011;51003;51.628;6.670;2022-07-30T01:39:59;11.63;;;8.47;;
64595;SDS011;51003;51.628;6.670;2022-07-30T01:42:25;9.80;;;7.87;;
64595;SDS011;51003;51.628;6.670;2022-07-30T01:44:52;9.90;;;7.70;;
64595;SDS011;51003;51.628;6.670;2022-07-30T01:47:18;15.23;;;9.20;;
64595;SDS011;51003;51.628;6.670;2022-07-30T01:49:45;10.50;;;8.30;;
64595;SDS011;51003;51.628;6.670;2022-07-30T01:52:11;9.50;;;7.93;;
64595;SDS011;51003;51.628;6.670;2022-07-30T01:54:38;13.07;;;8.40;;
64595;SDS011;51003;51.628;6.670;2022-07-30T01:57:04;11.73;;;8.87;;
64595;SDS011;51003;51.628;6.670;2022-07-30T01:59:30;12.80;;;9.00;;
64595;SDS011;51003;51.628;6.670;2022-07-30T02:01:57;12.10;;;8.93;;
64595;SDS011;51003;51.628;6.670;2022-07-30T02:04:23;11.53;;;8.30;;
64595;SDS011;51003;51.628;6.670;2022-07-30T02:06:58;10.77;;;8.90;;
64595;SDS011;51003;51.628;6.670;2022-07-30T02:09:28;11.70;;;9.20;;
64595;SDS011;51003;51.628;6.670;2022-07-30T02:11:57;11.87;;;9.00;;
64595;SDS011;51003;51.628;6.670;2022-07-30T02:14:52;10.70;;;8.60;;
64595;SDS011;51003;51.628;6.670;2022-07-30T02:17:27;14.97;;;9.20;;
64595;SDS011;51003;51.628;6.670;2022-07-30T02:19:54;16.13;;;8.70;;
64595;SDS011;51003;51.628;6.670;2022-07-30T02:22:21;14.13;;;8.70;;
64595;SDS011;51003;51.628;6.670;2022-07-30T02:24:48;14.60;;;9.67;;
64595;SDS011;51003;51.628;6.670;2022-07-30T02:27:15;12.13;;;9.40;;
64595;SDS011;51003;51.628;6.670;2022-07-30T02:29:53;15.60;;;10.70;;
64595;SDS011;51003;51.628;6.670;2022-07-30T02:32:20;17.40;;;10.17;;
64595;SDS011;51003;51.628;6.670;2022-07-30T02:34:47;14.67;;;10.83;;
64595;SDS011;51003;51.628;6.670;2022-07-30T02:37:14;17.03;;;11.17;;
64595;SDS011;51003;51.628;6.670;2022-07-30T02:39:40;16.50;;;11.30;;
64595;SDS011;51003;51.628;6.670;2022-07-30T02:42:07;16.10;;;11.57;;
64595;SDS011;51003;51.628;6.670;2022-07-30T02:44:33;15.80;;;10.47;;
64595;SDS011;51003;51.628;6.670;2022-07-30T02:46:59;17.93;;;11.60;;
64595;SDS011;51003;51.628;6.670;2022-07-30T02:49:26;14.53;;;12.10;;
64595;SDS011;51003;51.628;6.670;2022-07-30T02:51:53;18.50;;;11.63;;
64595;SDS011;51003;51.628;6.670;2022-07-30T02:54:19;18.70;;;12.70;;
64595;SDS011;51003;51.628;6.670;2022-07-30T02:56:46;17.57;;;12.80;;
64595;SDS011;51003;51.628;6.670;2022-07-30T02:59:14;15.23;;;11.87;;
64595;SDS011;51003;51.628;6.670;2022-07-30T03:01:40;15.20;;;11.77;;
64595;SDS011;51003;51.628;6.670;2022-07-30T03:04:07;19.60;;;12.33;;
64595;SDS011;51003;51.628;6.670;2022-07-30T03:06:33;14.27;;;11.13;;
64595;SDS011;51003;51.628;6.670;2022-07-30T03:08:59;14.87;;;12.10;;
64595;SDS011;51003;51.628;6.670;2022-07-30T03:11:26;15.13;;;11.30;;
64595;SDS011;51003;51.628;6.670;2022-07-30T03:13:53;16.60;;;10.83;;
64595;SDS011;51003;51.628;6.670;2022-07-30T03:16:19;17.47;;;10.87;;
64595;SDS011;51003;51.628;6.670;2022-07-30T03:18:46;12.60;;;10.47;;
64595;SDS011;51003;51.628;6.670;2022-07-30T03:21:12;15.83;;;10.77;;
64595;SDS011;51003;51.628;6.670;2022-07-30T03:23:40;14.00;;;10.70;;
64595;SDS011;51003;51.628;6.670;2022-07-30T03:26:08;13.80;;;10.43;;
64595;SDS011;51003;51.628;6.670;2022-07-30T03:28:38;17.07;;;11.20;;
64595;SDS011;51003;51.628;6.670;2022-07-30T03:31:04;12.40;;;10.83;;
64595;SDS011;51003;51.628;6.670;2022-07-30T03:33:31;15.70;;;11.67;;
64595;SDS011;51003;51.628;6.670;2022-07-30T03:35:59;18.57;;;12.10;;
64595;SDS011;51003;51.628;6.670;2022-07-30T03:38:24;16.70;;;12.53;;
64595;SDS011;51003;51.628;6.670;2022-07-30T03:40:50;29.13;;;13.50;;
64595;SDS011;51003;51.628;6.670;2022-07-30T03:43:16;20.83;;;13.53;;
64595;SDS011;51003;51.628;6.670;2022-07-30T03:45:42;22.00;;;14.87;;
64595;SDS011;51003;51.628;6.670;2022-07-30T03:48:09;22.23;;;15.30;;
64595;SDS011;51003;51.628;6.670;2022-07-30T03:50:36;21.17;;;16.53;;
64595;SDS011;51003;51.628;6.670;2022-07-30T03:53:02;21.03;;;16.07;;
64595;SDS011;51003;51.628;6.670;2022-07-30T03:55:29;23.03;;;15.80;;
64595;SDS011;51003;51.628;6.670;2022-07-30T03:57:55;21.40;;;15.20;;
64595;SDS011;51003;51.628;6.670;2022-07-30T04:00:20;24.90;;;17.30;;
64595;SDS011;51003;51.628;6.670;2022-07-30T04:02:46;23.10;;;16.13;;
64595;SDS011;51003;51.628;6.670;2022-07-30T04:05:12;20.80;;;15.40;;
64595;SDS011;51003;51.628;6.670;2022-07-30T04:07:38;25.60;;;14.70;;
64595;SDS011;51003;51.628;6.670;2022-07-30T04:10:04;20.77;;;15.27;;
64595;SDS011;51003;51.628;6.670;2022-07-30T04:12:30;20.27;;;14.40;;
64595;SDS011;51003;51.628;6.670;2022-07-30T04:14:55;25.50;;;15.20;;
64595;SDS011;51003;51.628;6.670;2022-07-30T04:17:26;24.83;;;16.77;;
64595;SDS011;51003;51.628;6.670;2022-07-30T04:21:00;25.27;;;16.13;;
64595;SDS011;51003;51.628;6.670;2022-07-30T04:22:59;27.63;;;18.67;;
64595;SDS011;51003;51.628;6.670;2022-07-30T04:25:25;36.47;;;21.23;;
64595;SDS011;51003;51.628;6.670;2022-07-30T04:27:50;38.40;;;22.47;;
64595;SDS011;51003;51.628;6.670;2022-07-30T04:30:16;44.47;;;23.00;;
64595;SDS011;51003;51.628;6.670;2022-07-30T04:32:41;41.47;;;24.30;;
64595;SDS011;51003;51.628;6.670;2022-07-30T04:35:07;51.77;;;24.70;;
64595;SDS011;51003;51.628;6.670;2022-07-30T04:37:33;47.83;;;24.67;;
64595;SDS011;51003;51.628;6.670;2022-07-30T04:39:58;44.17;;;24.03;;
64595;SDS011;51003;51.628;6.670;2022-07-30T04:42:24;37.63;;;22.70;;
64595;SDS011;51003;51.628;6.670;2022-07-30T04:44:50;40.40;;;23.13;;
64595;SDS011;51003;51.628;6.670;2022-07-30T04:47:16;31.60;;;20.00;;
64595;SDS011;51003;51.628;6.670;2022-07-30T04:49:42;30.97;;;19.03;;
64595;SDS011;51003;51.628;6.670;2022-07-30T04:52:08;29.10;;;18.37;;
64595;SDS011;51003;51.628;6.670;2022-07-30T04:54:36;32.40;;;20.17;;
64595;SDS011;51003;51.628;6.670;2022-07-30T04:57:14;33.67;;;20.40;;
64595;SDS011;51003;51.628;6.670;2022-07-30T04:59:41;32.67;;;19.23;;
64595;SDS011;51003;51.628;6.670;2022-07-30T05:02:07;37.47;;;21.20;;
64595;SDS011;51003;51.628;6.670;2022-07-30T05:04:33;33.63;;;20.50;;
64595;SDS011;51003;51.628;6.670;2022-07-30T05:06:59;28.43;;;19.10;;
64595;SDS011;51003;51.628;6.670;2022-07-30T05:09:25;29.10;;;19.13;;
64595;SDS011;51003;51.628;6.670;2022-07-30T05:11:52;31.20;;;18.60;;
64595;SDS011;51003;51.628;6.670;2022-07-30T05:14:19;30.53;;;18.90;;
64595;SDS011;51003;51.628;6.670;2022-07-30T05:16:45;28.70;;;19.07;;
64595;SDS011;51003;51.628;6.670;2022-07-30T05:19:10;30.50;;;19.60;;
64595;SDS011;51003;51.628;6.670;2022-07-30T05:21:35;35.73;;;19.27;;
64595;SDS011;51003;51.628;6.670;2022-07-30T05:24:01;31.40;;;19.67;;
64595;SDS011;51003;51.628;6.670;2022-07-30T05:26:26;29.23;;;19.40;;
64595;SDS011;51003;51.628;6.670;2022-07-30T05:28:52;33.30;;;20.93;;
64595;SDS011;51003;51.628;6.670;2022-07-30T05:31:17;34.20;;;19.30;;
64595;SDS011;51003;51.628;6.670;2022-07-30T05:33:43;32.33;;;20.57;;
64595;SDS011;51003;51.628;6.670;2022-07-30T05:36:08;32.10;;;20.40;;
64595;SDS011;51003;51.628;6.670;2022-07-30T05:38:34;27.97;;;18.50;;
64595;SDS011;51003;51.628;6.670;2022-07-30T05:40:59;31.13;;;19.27;;
64595;SDS011;51003;51.628;6.670;2022-07-30T05:43:25;30.17;;;19.20;;
64595;SDS011;51003;51.628;6.670;2022-07-30T05:45:50;33.40;;;20.87;;
64595;SDS011;51003;51.628;6.670;2022-07-30T05:48:16;36.07;;;21.57;;
64595;SDS011;51003;51.628;6.670;2022-07-30T05:50:42;33.03;;;19.87;;
64595;SDS011;51003;51.628;6.670;2022-07-30T05:53:07;31.30;;;20.73;;
64595;SDS011;51003;51.628;6.670;2022-07-30T05:55:32;33.60;;;20.00;;
64595;SDS011;51003;51.628;6.670;2022-07-30T05:57:58;29.23;;;19.73;;
64595;SDS011;51003;51.628;6.670;2022-07-30T06:00:23;40.30;;;20.20;;
64595;SDS011;51003;51.628;6.670;2022-07-30T06:02:49;39.30;;;21.70;;
64595;SDS011;51003;51.628;6.670;2022-07-30T06:05:14;31.90;;;20.57;;
64595;SDS011;51003;51.628;6.670;2022-07-30T06:07:39;44.33;;;21.53;;
64595;SDS011;51003;51.628;6.670;2022-07-30T06:10:05;31.37;;;20.50;;
64595;SDS011;51003;51.628;6.670;2022-07-30T06:12:32;32.03;;;20.33;;
64595;SDS011;51003;51.628;6.670;2022-07-30T06:14:57;26.90;;;18.33;;
64595;SDS011;51003;51.628;6.670;2022-07-30T06:17:23;29.80;;;19.50;;
64595;SDS011;51003;51.628;6.670;2022-07-30T06:19:48;30.27;;;18.40;;
64595;SDS011;51003;51.628;6.670;2022-07-30T06:22:15;27.77;;;17.37;;
64595;SDS011;51003;51.628;6.670;2022-07-30T07:32:01;18.83;;;11.37;;
64595;SDS011;51003;51.628;6.670;2022-07-30T07:34:26;15.60;;;10.30;;
64595;SDS011;51003;51.628;6.670;2022-07-30T07:36:51;15.30;;;10.67;;
64595;SDS011;51003;51.628;6.670;2022-07-30T07:39:17;18.43;;;9.40;;
64595;SDS011;51003;51.628;6.670;2022-07-30T07:41:42;14.67;;;10.30;;
64595;SDS011;51003;51.628;6.670;2022-07-30T07:44:08;11.83;;;8.53;;
64595;SDS011;51003;51.628;6.670;2022-07-30T07:46:33;16.10;;;8.87;;
64595;SDS011;51003;51.628;6.670;2022-07-30T07:48:58;15.70;;;9.13;;
64595;SDS011;51003;51.628;6.670;2022-07-30T07:51:24;12.33;;;8.90;;
64595;SDS011;51003;51.628;6.670;2022-07-30T07:53:49;12.33;;;8.53;;
64595;SDS011;51003;51.628;6.670;2022-07-30T07:56:15;9.10;;;7.77;;
64595;SDS011;51003;51.628;6.670;2022-07-30T07:58:40;14.10;;;8.60;;
64595;SDS011;51003;51.628;6.670;2022-07-30T08:01:06;15.87;;;8.33;;
64595;SDS011;51003;51.628;6.670;2022-07-30T08:03:32;11.77;;;8.90;;
64595;SDS011;51003;51.628;6.670;2022-07-30T08:05:57;9.80;;;7.80;;
64595;SDS011;51003;51.628;6.670;2022-07-30T08:08:28;12.90;;;8.20;;
64595;SDS011;51003;51.628;6.670;2022-07-30T08:10:53;9.93;;;8.00;;
64595;SDS011;51003;51.628;6.670;2022-07-30T08:13:19;10.97;;;8.23;;
64595;SDS011;51003;51.628;6.670;2022-07-30T08:15:44;11.60;;;8.30;;
64595;SDS011;51003;51.628;6.670;2022-07-30T08:18:10;7.90;;;7.07;;
64595;SDS011;51003;51.628;6.670;2022-07-30T08:20:36;9.90;;;6.70;;
64595;SDS011;51003;51.628;6.670;2022-07-30T08:23:03;13.20;;;7.00;;
64595;SDS011;51003;51.628;6.670;2022-07-30T08:25:29;10.03;;;7.03;;
64595;SDS011;51003;51.628;6.670;2022-07-30T08:27:55;10.60;;;6.97;;
64595;SDS011;51003;51.628;6.670;2022-07-30T08:30:20;13.00;;;7.47;;
64595;SDS011;51003;51.628;6.670;2022-07-30T08:32:46;7.30;;;6.40;;
64595;SDS011;51003;51.628;6.670;2022-07-30T08:35:11;7.83;;;6.00;;
64595;SDS011;51003;51.628;6.670;2022-07-30T08:37:37;7.20;;;5.73;;
64595;SDS011;51003;51.628;6.670;2022-07-30T08:40:05;8.50;;;5.20;;
64595;SDS011;51003;51.628;6.670;2022-07-30T08:42:31;6.93;;;4.63;;
64595;SDS011;51003;51.628;6.670;2022-07-30T08:44:58;5.33;;;4.30;;
64595;SDS011;51003;51.628;6.670;2022-07-30T08:47:24;12.07;;;5.90;;
64595;SDS011;51003;51.628;6.670;2022-07-30T08:49:53;7.93;;;5.77;;
64595;SDS011;51003;51.628;6.670;2022-07-30T08:52:21;7.20;;;6.07;;
64595;SDS011;51003;51.628;6.670;2022-07-30T08:54:47;8.63;;;5.73;;
64595;SDS011;51003;51.628;6.670;2022-07-30T08:57:12;5.90;;;5.00;;
64595;SDS011;51003;51.628;6.670;2022-07-30T08:59:38;5.47;;;4.97;;
64595;SDS011;51003;51.628;6.670;2022-07-30T09:02:04;9.23;;;6.17;;
64595;SDS011;51003;51.628;6.670;2022-07-30T09:04:30;6.20;;;5.03;;
64595;SDS011;51003;51.628;6.670;2022-07-30T09:06:57;4.63;;;4.17;;
64595;SDS011;51003;51.628;6.670;2022-07-30T09:09:22;4.60;;;4.20;;
64595;SDS011;51003;51.628;6.670;2022-07-30T09:11:49;5.57;;;4.80;;
64595;SDS011;51003;51.628;6.670;2022-07-30T09:15:06;4.97;;;4.50;;
64595;SDS011;51003;51.628;6.670;2022-07-30T09:17:44;5.23;;;4.47;;
64595;SDS011;51003;51.628;6.670;2022-07-30T09:20:20;6.07;;;4.37;;
64595;SDS011;51003;51.628;6.670;2022-07-30T09:22:52;8.80;;;4.47;;
64595;SDS011;51003;51.628;6.670;2022-07-30T09:25:40;4.70;;;4.30;;
64595;SDS011;51003;51.628;6.670;2022-07-30T09:28:09;4.93;;;4.43;;
64595;SDS011;51003;51.628;6.670;2022-07-30T09:30:44;4.80;;;4.40;;
64595;SDS011;51003;51.628;6.670;2022-07-30T09:33:31;6.03;;;4.10;;
64595;SDS011;51003;51.628;6.670;2022-07-30T09:36:03;3.73;;;3.43;;
64595;SDS011;51003;51.628;6.670;2022-07-30T09:38:48;3.70;;;3.40;;
64595;SDS011;51003;51.628;6.670;2022-07-30T09:48:21;3.63;;;3.33;;
64595;SDS011;51003;51.628;6.670;2022-07-30T10:46:08;4.70;;;3.33;;
64595;SDS011;51003;51.628;6.670;2022-07-30T11:26:46;3.43;;;3.13;;
64595;SDS011;51003;51.628;6.670;2022-07-30T11:29:31;3.67;;;3.20;;
64595;SDS011;51003;51.628;6.670;2022-07-30T12:47:50;3.70;;;3.40;;
64595;SDS011;51003;51.628;6.670;2022-07-30T12:50:16;3.60;;;3.30;;
64595;SDS011;51003;51.628;6.670;2022-07-30T12:52:46;4.63;;;3.20;;
64595;SDS011;51003;51.628;6.670;2022-07-30T12:55:13;4.40;;;3.10;;
64595;SDS011;51003;51.628;6.670;2022-07-30T13:00:19;3.73;;;3.30;;
64595;SDS011;51003;51.628;6.670;2022-07-30T13:02:46;3.83;;;3.53;;
64595;SDS011;51003;51.628;6.670;2022-07-30T13:05:11;3.50;;;3.30;;
64595;SDS011;51003;51.628;6.670;2022-07-30T13:07:53;3.00;;;2.80;;
64595;SDS011;51003;51.628;6.670;2022-07-30T13:10:28;3.00;;;2.90;;
64595;SDS011;51003;51.628;6.670;2022-07-30T13:19:59;3.33;;;3.07;;
64595;SDS011;51003;51.628;6.670;2022-07-30T13:22:24;3.07;;;2.87;;
64595;SDS011;51003;51.628;6.670;2022-07-30T13:24:50;3.10;;;2.97;;
64595;SDS011;51003;51.628;6.670;2022-07-30T13:27:15;3.80;;;3.50;;
64595;SDS011;51003;51.628;6.670;2022-07-30T13:29:54;3.60;;;3.40;;
64595;SDS011;51003;51.628;6.670;2022-07-30T13:36:23;3.47;;;3.20;;
64595;SDS011;51003;51.628;6.670;2022-07-30T13:38:48;4.00;;;3.50;;
64595;SDS011;51003;51.628;6.670;2022-07-30T13:41:14;3.83;;;3.50;;
64595;SDS011;51003;51.628;6.670;2022-07-30T16:07:45;3.10;;;2.90;;
64595;SDS011;51003;51.628;6.670;2022-07-30T16:13:48;3.50;;;3.20;;
64595;SDS011;51003;51.628;6.670;2022-07-30T16:40:11;3.33;;;3.03;;
64595;SDS011;51003;51.628;6.670;2022-07-30T16:42:37;22.43;;;3.27;;
64595;SDS011;51003;51.628;6.670;2022-07-30T16:45:04;3.30;;;3.10;;
64595;SDS011;51003;51.628;6.670;2022-07-30T16:47:30;3.50;;;3.20;;
64595;SDS011;51003;51.628;6.670;2022-07-30T16:49:55;3.67;;;3.37;;
64595;SDS011;51003;51.628;6.670;2022-07-30T16:52:21;3.57;;;3.27;;
64595;SDS011;51003;51.628;6.670;2022-07-30T16:54:50;3.30;;;3.10;;
64595;SDS011;51003;51.628;6.670;2022-07-30T18:32:44;3.47;;;3.17;;
64595;SDS011;51003;51.628;6.670;2022-07-30T19:54:28;4.50;;;4.10;;
64595;SDS011;51003;51.628;6.670;2022-07-30T20:21:02;4.60;;;4.20;;
64595;SDS011;51003;51.628;6.670;2022-07-30T20:26:56;4.80;;;4.40;;
64595;SDS011;51003;51.628;6.670;2022-07-30T20:29:23;6.40;;;4.77;;
64595;SDS011;51003;51.628;6.670;2022-07-30T20:31:49;6.60;;;4.77;;
64595;SDS011;51003;51.628;6.670;2022-07-30T20:34:35;5.10;;;4.30;;
64595;SDS011;51003;51.628;6.670;2022-07-30T23:47:27;3.43;;;3.13;;
